createdAt,value
2018-12-01T00:00:44.880Z,12.90
2018-12-01T00:03:14.600Z,12.63
2018-12-01T00:05:44.467Z,12.20
2018-12-01T00:08:13.795Z,13.73
2018-12-01T00:10:43.356Z,13.33
2018-12-01T00:13:12.899Z,12.30
2018-12-01T00:15:42.318Z,13.47
2018-12-01T00:18:12.527Z,14.43
2018-12-01T00:20:41.991Z,14.03
2018-12-01T00:23:11.412Z,13.77
2018-12-01T00:25:40.867Z,14.50
2018-12-01T00:28:10.294Z,13.60
2018-12-01T00:30:39.831Z,13.57
2018-12-01T00:33:09.207Z,13.20
2018-12-01T00:35:38.812Z,13.07
2018-12-01T00:38:08.241Z,11.83
2018-12-01T00:40:37.718Z,11.00
2018-12-01T00:43:08.654Z,12.57
2018-12-01T00:45:38.273Z,12.73
2018-12-01T00:48:14.362Z,11.83
2018-12-01T00:50:44.074Z,12.83
2018-12-01T00:53:13.645Z,12.50
2018-12-01T00:55:43.171Z,13.50
2018-12-01T00:58:12.665Z,13.57
2018-12-01T01:00:42.211Z,12.53
2018-12-01T01:03:11.845Z,13.40
2018-12-01T01:05:41.459Z,13.23
2018-12-01T01:08:11.192Z,12.53
2018-12-01T01:10:40.677Z,12.33
2018-12-01T01:13:11.279Z,11.90
2018-12-01T01:15:40.985Z,10.93
2018-12-01T01:18:10.337Z,11.43
2018-12-01T01:20:39.847Z,14.00
2018-12-01T01:23:10.172Z,11.83
2018-12-01T01:25:39.795Z,12.30
2018-12-01T01:28:09.336Z,10.87
2018-12-01T01:30:38.947Z,12.00
2018-12-01T01:33:19.272Z,11.17
2018-12-01T01:35:48.636Z,11.03
2018-12-01T01:38:18.047Z,11.57
2018-12-01T01:40:48.767Z,10.80
2018-12-01T01:43:18.117Z,10.63
2018-12-01T01:45:47.577Z,11.17
2018-12-01T01:48:17.130Z,12.10
2018-12-01T01:50:46.763Z,12.00
2018-12-01T01:53:16.990Z,10.53
2018-12-01T01:55:46.571Z,12.40
2018-12-01T01:58:16.960Z,11.37
2018-12-01T02:00:48.174Z,10.60
2018-12-01T02:03:17.551Z,11.67
2018-12-01T02:05:47.167Z,10.70
2018-12-01T02:08:16.730Z,10.73
2018-12-01T02:10:46.364Z,11.43
2018-12-01T02:13:15.743Z,13.20
2018-12-01T02:15:45.363Z,11.27
2018-12-01T02:18:14.752Z,12.33
2018-12-01T02:20:44.413Z,10.97
2018-12-01T02:23:14.624Z,12.07
2018-12-01T02:25:44.126Z,11.07
2018-12-01T02:28:13.710Z,11.47
2018-12-01T02:30:43.430Z,12.00
2018-12-01T02:33:12.962Z,12.10
2018-12-01T02:35:42.479Z,12.60
2018-12-01T02:38:13.197Z,12.27
2018-12-01T02:40:42.744Z,12.23
2018-12-01T02:43:12.473Z,13.20
2018-12-01T02:45:53.235Z,11.87
2018-12-01T02:48:23.400Z,13.13
2018-12-01T02:50:52.796Z,11.37
2018-12-01T02:53:22.973Z,12.33
2018-12-01T02:55:52.449Z,12.83
2018-12-01T02:58:21.987Z,13.10
2018-12-01T03:00:51.569Z,12.47
2018-12-01T03:03:21.226Z,12.47
2018-12-01T03:05:51.053Z,12.27
2018-12-01T03:08:20.536Z,13.83
2018-12-01T03:10:51.187Z,12.10
2018-12-01T03:13:20.594Z,12.80
2018-12-01T03:15:51.409Z,12.97
2018-12-01T03:18:21.015Z,12.57
2018-12-01T03:20:50.680Z,12.80
2018-12-01T03:23:20.275Z,12.17
2018-12-01T03:25:49.754Z,13.03
2018-12-01T03:28:20.208Z,12.93
2018-12-01T03:30:49.979Z,13.07
2018-12-01T03:33:19.446Z,13.87
2018-12-01T03:35:48.982Z,12.53
2018-12-01T03:38:18.499Z,13.30
2018-12-01T03:40:48.863Z,12.77
2018-12-01T03:43:18.487Z,13.07
2018-12-01T03:45:48.507Z,12.17
2018-12-01T03:48:18.058Z,12.60
2018-12-01T03:50:47.533Z,12.97
2018-12-01T03:53:17.633Z,13.60
2018-12-01T03:55:47.180Z,13.83
2018-12-01T03:58:16.699Z,14.17
2018-12-01T04:00:47.049Z,13.50
2018-12-01T04:03:16.534Z,13.43
2018-12-01T04:05:46.131Z,13.50
2018-12-01T04:08:15.558Z,12.77
2018-12-01T04:10:45.310Z,13.67
2018-12-01T04:13:14.560Z,11.97
2018-12-01T04:15:43.968Z,11.70
2018-12-01T04:18:14.221Z,13.10
2018-12-01T04:20:43.777Z,13.63
2018-12-01T04:23:13.228Z,13.93
2018-12-01T04:25:42.593Z,12.00
2018-12-01T04:28:11.983Z,12.80
2018-12-01T04:30:41.208Z,13.30
2018-12-01T04:33:10.667Z,13.47
2018-12-01T04:35:40.829Z,14.17
2018-12-01T04:38:10.331Z,12.87
2018-12-01T04:40:40.688Z,13.17
2018-12-01T04:43:10.096Z,13.10
2018-12-01T04:45:39.449Z,12.73
2018-12-01T04:48:08.754Z,13.87
2018-12-01T04:50:38.026Z,12.63
2018-12-01T04:53:07.899Z,12.60
2018-12-01T04:55:37.256Z,13.63
2018-12-01T04:58:06.975Z,13.93
2018-12-01T05:00:36.378Z,12.53
2018-12-01T05:03:05.884Z,13.47
2018-12-01T05:05:35.224Z,13.67
2018-12-01T05:08:04.582Z,12.90
2018-12-01T05:10:33.986Z,13.73
2018-12-01T05:13:03.288Z,14.87
2018-12-01T05:15:32.568Z,12.13
2018-12-01T05:18:01.935Z,11.77
2018-12-01T05:20:31.296Z,13.60
2018-12-01T05:23:00.791Z,12.43
2018-12-01T05:25:30.630Z,13.10
2018-12-01T05:28:00.018Z,13.97
2018-12-01T05:30:29.368Z,13.37
2018-12-01T05:32:58.827Z,14.43
2018-12-01T05:35:28.296Z,15.37
2018-12-01T05:37:57.712Z,15.37
2018-12-01T05:40:27.140Z,16.10
2018-12-01T05:42:56.565Z,15.20
2018-12-01T05:45:25.977Z,14.10
2018-12-01T05:47:55.374Z,15.10
2018-12-01T05:50:25.417Z,14.57
2018-12-01T05:52:55.746Z,14.43
2018-12-01T05:55:25.604Z,13.50
2018-12-01T05:57:55.100Z,14.43
2018-12-01T06:00:24.463Z,13.83
2018-12-01T06:02:53.913Z,14.13
2018-12-01T06:05:23.317Z,15.90
2018-12-01T06:07:55.440Z,15.80
2018-12-01T06:10:25.389Z,14.27
2018-12-01T06:12:54.864Z,12.90
2018-12-01T06:15:24.507Z,14.90
2018-12-01T06:17:53.981Z,12.90
2018-12-01T06:20:24.359Z,13.67
2018-12-01T06:22:53.856Z,13.10
2018-12-01T06:25:24.552Z,13.60
2018-12-01T06:27:54.056Z,13.97
2018-12-01T06:30:23.551Z,13.70
2018-12-01T06:32:54.237Z,14.50
2018-12-01T06:35:23.735Z,13.87
2018-12-01T06:37:53.238Z,13.80
2018-12-01T06:40:22.954Z,14.13
2018-12-01T06:42:52.338Z,12.73
2018-12-01T06:45:22.032Z,13.67
2018-12-01T06:47:51.571Z,13.87
2018-12-01T06:50:22.759Z,13.27
2018-12-01T06:52:53.451Z,14.60
2018-12-01T06:55:23.824Z,13.93
2018-12-01T06:57:53.912Z,13.60
2018-12-01T07:00:26.575Z,13.73
2018-12-01T07:02:57.617Z,13.17
2018-12-01T07:05:27.266Z,15.10
2018-12-01T07:07:56.856Z,13.90
2018-12-01T07:10:26.442Z,13.27
2018-12-01T07:12:57.461Z,14.20
2018-12-01T07:15:35.768Z,13.17
2018-12-01T07:18:15.081Z,14.03
2018-12-01T07:20:45.443Z,14.57
2018-12-01T07:23:14.996Z,14.40
2018-12-01T07:25:45.592Z,12.93
2018-12-01T07:28:15.097Z,12.97
2018-12-01T07:30:44.609Z,13.93
2018-12-01T07:33:14.111Z,14.17
2018-12-01T07:35:44.602Z,13.10
2018-12-01T07:38:13.984Z,13.43
2018-12-01T07:40:43.498Z,13.23
2018-12-01T07:43:13.028Z,14.10
2018-12-01T07:45:42.393Z,14.90
2018-12-01T07:48:11.853Z,14.90
2018-12-01T07:50:41.166Z,14.57
2018-12-01T07:53:10.720Z,13.57
2018-12-01T07:55:40.265Z,14.77
2018-12-01T07:58:09.783Z,15.33
2018-12-01T08:00:39.136Z,15.17
2018-12-01T08:03:08.947Z,15.53
2018-12-01T08:05:38.516Z,15.80
2018-12-01T08:08:08.234Z,14.63
2018-12-01T08:10:37.979Z,15.13
2018-12-01T08:13:07.536Z,15.20
2018-12-01T08:15:37.164Z,15.63
2018-12-01T08:18:07.025Z,15.10
2018-12-01T08:20:36.851Z,14.17
2018-12-01T08:23:06.730Z,14.23
2018-12-01T08:25:36.307Z,14.37
2018-12-01T08:28:06.901Z,14.83
2018-12-01T08:30:36.404Z,14.90
2018-12-01T08:33:06.297Z,13.87
2018-12-01T08:35:35.901Z,16.00
2018-12-01T08:38:05.764Z,15.03
2018-12-01T08:40:35.759Z,15.90
2018-12-01T08:43:08.005Z,16.50
2018-12-01T08:45:38.372Z,16.90
2018-12-01T08:48:15.489Z,15.00
2018-12-01T08:50:47.198Z,16.87
2018-12-01T08:53:19.542Z,17.30
2018-12-01T08:55:50.949Z,16.57
2018-12-01T08:58:22.193Z,18.13
2018-12-01T09:00:58.977Z,16.93
2018-12-01T09:03:30.328Z,18.73
2018-12-01T09:06:02.434Z,17.03
2018-12-01T09:08:33.077Z,16.80
2018-12-01T09:11:05.448Z,18.23
2018-12-01T09:13:35.609Z,17.80
2018-12-01T09:16:06.109Z,18.50
2018-12-01T09:18:36.952Z,19.17
2018-12-01T09:21:08.373Z,17.67
2018-12-01T09:23:39.576Z,18.07
2018-12-01T09:26:11.793Z,17.87
2018-12-01T09:28:42.776Z,18.03
2018-12-01T09:31:13.621Z,17.63
2018-12-01T09:33:44.624Z,17.50
2018-12-01T09:36:15.342Z,17.93
2018-12-01T09:38:46.752Z,18.83
2018-12-01T09:41:18.284Z,18.30
2018-12-01T09:43:51.649Z,18.77
2018-12-01T09:46:23.705Z,17.93
2018-12-01T09:48:56.776Z,18.20
2018-12-01T09:51:28.111Z,18.30
2018-12-01T09:53:59.879Z,18.73
2018-12-01T09:56:32.098Z,18.53
2018-12-01T09:59:03.647Z,17.93
2018-12-01T10:01:34.348Z,16.57
2018-12-01T10:04:06.090Z,19.67
2018-12-01T10:06:47.683Z,19.23
2018-12-01T10:09:18.293Z,21.07
2018-12-01T10:11:50.596Z,18.47
2018-12-01T10:14:19.667Z,19.50
2018-12-01T10:16:49.723Z,20.47
2018-12-01T10:19:19.563Z,19.37
2018-12-01T10:21:49.846Z,19.87
2018-12-01T10:24:19.943Z,19.00
2018-12-01T10:26:50.500Z,19.77
2018-12-01T10:29:20.809Z,22.17
2018-12-01T10:31:51.081Z,19.20
2018-12-01T10:34:21.965Z,19.77
2018-12-01T10:36:52.005Z,20.13
2018-12-01T10:39:22.787Z,20.20
2018-12-01T10:41:53.144Z,20.93
2018-12-01T10:44:23.111Z,20.47
2018-12-01T10:46:54.415Z,21.67
2018-12-01T10:49:24.830Z,21.27
2018-12-01T10:51:55.475Z,22.97
2018-12-01T10:54:25.522Z,20.83
2018-12-01T10:56:55.534Z,22.27
2018-12-01T10:59:26.546Z,20.87
2018-12-01T11:02:01.632Z,21.73
2018-12-01T11:04:36.651Z,23.20
2018-12-01T11:07:07.646Z,22.47
2018-12-01T11:09:38.486Z,21.77
2018-12-01T11:12:08.815Z,22.67
2018-12-01T11:14:39.485Z,22.43
2018-12-01T11:17:10.641Z,23.47
2018-12-01T11:19:41.773Z,22.47
2018-12-01T11:22:11.910Z,24.67
2018-12-01T11:27:11.121Z,24.70
2018-12-01T11:29:41.860Z,25.23
2018-12-01T11:32:13.835Z,24.73
2018-12-01T11:34:44.778Z,24.13
2018-12-01T11:37:15.968Z,24.60
2018-12-01T11:39:48.059Z,24.73
2018-12-01T11:42:20.546Z,24.83
2018-12-01T11:44:56.811Z,25.33
2018-12-01T11:47:23.605Z,26.47
2018-12-01T11:49:55.110Z,26.40
2018-12-01T11:52:26.161Z,26.83
2018-12-01T11:54:56.779Z,28.30
2018-12-01T11:57:32.359Z,27.43
2018-12-01T12:00:02.978Z,28.10
2018-12-01T12:02:34.562Z,26.90
2018-12-01T12:05:08.127Z,28.17
2018-12-01T12:07:48.772Z,28.00
2018-12-01T12:10:20.061Z,30.93
2018-12-01T12:12:51.367Z,28.87
2018-12-01T12:15:23.509Z,28.27
2018-12-01T12:17:57.924Z,28.60
2018-12-01T12:20:27.972Z,27.83
2018-12-01T12:22:57.986Z,28.40
2018-12-01T12:25:28.595Z,27.00
2018-12-01T12:28:00.714Z,28.47
2018-12-01T12:30:31.226Z,29.03
2018-12-01T12:33:02.012Z,30.47
2018-12-01T12:35:32.974Z,28.63
2018-12-01T12:38:03.416Z,29.60
2018-12-01T12:40:35.436Z,30.50
2018-12-01T12:43:26.449Z,29.57
2018-12-01T12:48:50.294Z,30.30
2018-12-01T12:51:21.449Z,30.30
2018-12-01T12:56:20.140Z,30.23
2018-12-01T12:58:54.188Z,29.50
2018-12-01T13:01:24.669Z,28.87
2018-12-01T13:03:55.398Z,30.80
2018-12-01T13:06:25.664Z,30.70
2018-12-01T13:08:56.812Z,28.13
2018-12-01T13:11:28.852Z,30.30
2018-12-01T13:13:59.899Z,31.87
2018-12-01T13:16:30.337Z,29.97
2018-12-01T13:19:00.874Z,28.70
2018-12-01T13:21:31.724Z,27.63
2018-12-01T13:24:03.896Z,29.17
2018-12-01T13:26:35.814Z,25.27
2018-12-01T13:29:06.751Z,29.93
2018-12-01T13:31:37.116Z,29.70
2018-12-01T13:34:07.231Z,31.13
2018-12-01T13:36:38.724Z,30.53
2018-12-01T13:39:13.436Z,32.63
2018-12-01T13:41:49.102Z,31.17
2018-12-01T13:44:21.602Z,30.40
2018-12-01T13:47:15.005Z,32.43
2018-12-01T13:49:45.516Z,34.70
2018-12-01T13:52:17.010Z,29.30
2018-12-01T13:54:48.596Z,32.93
2018-12-01T13:57:19.328Z,29.47
2018-12-01T13:59:50.599Z,29.40
2018-12-01T14:02:21.173Z,29.67
2018-12-01T14:04:51.875Z,28.63
2018-12-01T14:07:23.607Z,27.97
2018-12-01T14:09:53.777Z,29.27
2018-12-01T14:12:30.159Z,29.07
2018-12-01T14:15:21.344Z,30.83
2018-12-01T14:17:53.505Z,32.53
2018-12-01T14:20:25.117Z,30.83
2018-12-01T14:22:55.194Z,30.97
2018-12-01T14:25:26.983Z,31.13
2018-12-01T14:28:01.945Z,32.37
2018-12-01T14:30:32.215Z,32.40
2018-12-01T14:33:03.070Z,31.47
2018-12-01T14:35:37.654Z,32.17
2018-12-01T14:38:10.550Z,24.93
2018-12-01T14:40:43.784Z,34.57
2018-12-01T14:43:17.386Z,33.17
2018-12-01T14:45:48.941Z,32.20
2018-12-01T14:48:20.115Z,34.43
2018-12-01T14:50:49.910Z,34.20
2018-12-01T14:53:21.396Z,32.10
2018-12-01T14:55:52.120Z,33.70
2018-12-01T14:58:22.028Z,32.10
2018-12-01T15:00:53.776Z,34.03
2018-12-01T15:03:23.851Z,32.70
2018-12-01T15:05:54.754Z,32.73
2018-12-01T15:08:26.762Z,33.93
2018-12-01T15:10:57.236Z,30.83
2018-12-01T15:13:28.417Z,34.97
2018-12-01T15:16:02.420Z,32.23
2018-12-01T15:18:34.394Z,32.27
2018-12-01T15:21:05.228Z,31.90
2018-12-01T15:23:36.391Z,31.50
2018-12-01T15:26:06.348Z,31.93
2018-12-01T15:28:38.246Z,31.53
2018-12-01T15:31:09.332Z,30.97
2018-12-01T15:33:39.487Z,31.77
2018-12-01T15:36:09.500Z,32.87
2018-12-01T15:38:40.353Z,31.43
2018-12-01T15:41:11.347Z,33.83
2018-12-01T15:43:41.521Z,30.87
2018-12-01T15:46:12.121Z,35.87
2018-12-01T15:48:43.227Z,33.80
2018-12-01T15:51:13.081Z,33.73
2018-12-01T15:53:43.947Z,34.33
2018-12-01T15:56:16.401Z,31.00
2018-12-01T15:58:47.726Z,32.23
2018-12-01T16:01:23.378Z,31.90
2018-12-01T16:03:55.601Z,32.33
2018-12-01T16:06:32.438Z,31.20
2018-12-01T16:09:04.726Z,33.43
2018-12-01T16:11:36.057Z,32.17
2018-12-01T16:14:10.395Z,37.80
2018-12-01T16:16:42.651Z,35.73
2018-12-01T16:19:12.951Z,36.23
2018-12-01T16:21:44.848Z,37.73
2018-12-01T16:24:15.043Z,36.60
2018-12-01T16:26:51.000Z,36.77
2018-12-01T16:29:29.473Z,36.93
2018-12-01T16:32:02.683Z,35.93
2018-12-01T16:34:33.262Z,36.73
2018-12-01T16:37:17.958Z,35.37
2018-12-01T16:39:53.476Z,34.07
2018-12-01T16:42:27.764Z,33.83
2018-12-01T16:45:01.898Z,31.53
2018-12-01T16:47:39.948Z,33.20
2018-12-01T16:50:18.440Z,33.90
2018-12-01T16:52:55.825Z,34.30
2018-12-01T16:55:29.801Z,35.70
2018-12-01T16:58:05.553Z,36.27
2018-12-01T17:00:37.660Z,35.27
2018-12-01T17:03:09.431Z,35.97
2018-12-01T17:05:42.545Z,36.70
2018-12-01T17:08:18.144Z,35.70
2018-12-01T17:10:49.627Z,37.70
2018-12-01T17:13:22.814Z,32.73
2018-12-01T17:15:55.679Z,34.43
2018-12-01T17:18:30.387Z,35.40
2018-12-01T17:21:01.047Z,35.50
2018-12-01T17:23:33.295Z,38.90
2018-12-01T17:26:04.237Z,35.63
2018-12-01T17:28:57.594Z,35.97
2018-12-01T17:31:32.034Z,35.93
2018-12-01T17:34:02.135Z,39.03
2018-12-01T17:36:32.389Z,38.97
2018-12-01T17:39:02.462Z,38.30
2018-12-01T17:41:33.057Z,38.07
2018-12-01T17:44:05.781Z,38.17
2018-12-01T17:46:39.680Z,36.97
2018-12-01T17:49:10.118Z,37.60
2018-12-01T17:51:40.382Z,37.53
2018-12-01T17:54:17.466Z,38.67
2018-12-01T17:56:48.282Z,37.43
2018-12-01T17:59:22.505Z,38.03
2018-12-01T18:01:53.129Z,39.93
2018-12-01T18:04:23.509Z,38.30
2018-12-01T18:07:12.950Z,37.87
2018-12-01T18:09:44.267Z,39.57
2018-12-01T18:12:48.814Z,40.27
2018-12-01T18:15:27.099Z,39.00
2018-12-01T18:18:24.508Z,37.83
2018-12-01T18:28:05.504Z,38.07
2018-12-01T18:30:48.798Z,39.90
2018-12-01T19:07:22.241Z,43.00
2018-12-01T19:09:54.582Z,42.83
2018-12-01T19:12:25.386Z,44.10
2018-12-01T19:14:56.958Z,43.53
2018-12-01T19:17:38.206Z,45.10
2018-12-01T19:20:14.745Z,43.17
2018-12-01T19:22:47.696Z,45.30
2018-12-01T19:25:23.688Z,45.43
2018-12-01T19:27:55.135Z,46.07
2018-12-01T19:30:25.362Z,46.90
2018-12-01T19:32:58.967Z,44.77
2018-12-01T19:35:29.393Z,45.70
2018-12-01T19:38:01.515Z,46.37
2018-12-01T19:40:36.911Z,43.80
2018-12-01T19:58:56.918Z,31.57
2018-12-01T20:01:28.578Z,45.50
2018-12-01T20:04:20.676Z,44.20
2018-12-01T20:07:05.106Z,44.87
2018-12-01T20:15:07.701Z,46.67
2018-12-01T20:20:57.498Z,41.83
2018-12-01T20:23:47.493Z,41.93
2018-12-01T20:26:45.190Z,44.30
2018-12-01T20:41:21.270Z,45.50
2018-12-01T20:44:08.325Z,47.37
2018-12-01T20:46:46.312Z,50.43
2018-12-01T21:18:58.323Z,44.83
2018-12-01T21:21:28.376Z,48.30
2018-12-01T21:23:58.785Z,47.27
2018-12-01T21:29:01.457Z,46.20
2018-12-01T21:31:35.972Z,46.10
2018-12-01T21:34:06.780Z,46.40
2018-12-01T21:36:36.980Z,46.53
2018-12-01T21:39:09.187Z,46.77
2018-12-01T21:41:39.914Z,47.20
2018-12-01T21:44:10.738Z,48.53
2018-12-01T21:46:42.453Z,47.43
2018-12-01T21:49:12.481Z,49.83
2018-12-01T21:51:48.793Z,50.13
2018-12-01T21:54:19.060Z,47.20
2018-12-01T21:56:51.613Z,48.17
2018-12-01T21:59:21.886Z,50.30
2018-12-01T22:01:52.348Z,45.87
2018-12-01T22:04:23.185Z,51.43
2018-12-01T22:06:53.242Z,45.83
2018-12-01T22:09:24.039Z,49.23
2018-12-01T22:11:55.118Z,51.13
2018-12-01T22:14:26.155Z,52.80
2018-12-01T22:16:55.928Z,51.53
2018-12-01T22:19:26.936Z,50.27
2018-12-01T22:21:58.061Z,46.60
2018-12-01T22:27:01.010Z,48.67
2018-12-01T22:29:30.961Z,46.73
2018-12-01T22:32:01.562Z,44.60
2018-12-01T22:34:31.471Z,47.80
2018-12-01T22:37:04.257Z,46.80
2018-12-01T22:39:34.319Z,46.27
2018-12-01T22:42:06.036Z,47.87
2018-12-01T22:44:35.865Z,45.10
2018-12-01T22:47:05.951Z,47.60
2018-12-01T22:49:37.461Z,47.93
2018-12-01T22:52:07.408Z,40.33
2018-12-01T22:54:38.948Z,44.53
2018-12-01T22:57:09.686Z,38.00
2018-12-01T22:59:42.604Z,45.87
2018-12-01T23:02:14.713Z,47.93
2018-12-01T23:05:11.784Z,47.47
2018-12-01T23:07:42.793Z,46.73
2018-12-01T23:10:14.128Z,45.37
2018-12-01T23:12:53.763Z,44.70
2018-12-01T23:15:32.629Z,42.30
2018-12-01T23:18:10.030Z,46.87
2018-12-01T23:20:45.587Z,43.47
2018-12-01T23:23:27.392Z,44.50
2018-12-01T23:26:01.031Z,44.47
2018-12-01T23:28:36.580Z,43.67
2018-12-01T23:31:07.764Z,44.73
2018-12-01T23:33:38.754Z,48.13
2018-12-01T23:39:16.562Z,43.90
2018-12-01T23:41:46.549Z,44.13
2018-12-01T23:44:34.424Z,44.47
2018-12-01T23:47:05.625Z,42.27
2018-12-01T23:49:35.385Z,47.53
2018-12-01T23:52:05.055Z,43.37
2018-12-01T23:54:34.763Z,36.67
2018-12-01T23:57:04.448Z,46.20
2018-12-01T23:59:34.264Z,38.83
